Terminal Aerodrome Forecast
Issued by NWS

Home | Current Version | Previous Version | Text Only | Print | Product List | Glossary On
Versions: 1 2 3 4 5 6 7 8 9 10 11 12 13 14 15 16 17 18 19 20 21 22 23 24 25 26 27 28 29 30 31 32 33
892
FTUS44 KFWD 180802 AAA
TAFDAL
TAF AMD
KDAL 180802Z 1808/1906 35008KT P6SM VCSH OVC035
      TEMPO 1808/1811 5SM -RA BR BKN012
     FM181100 04006KT 6SM -RA BR BKN008
     FM181800 35005KT 3SM BR OVC006=

USA.gov is the U.S. government's official web portal to all federal, state and local government web resources and services.